Observations for BRIZE NORTON RA, United Kingdom (EGVN)

EGVN 180450Z 23005KT 9999 SCT009 BKN031 14/13 Q1017 GRN TEMPO SCT015 WHT
EGVN 180450Z 23005KT 9999 SCT009 BKN031 14/13 Q1017 TEMPO SCT015
EGVN 180350Z 22004KT 9999 FEW018 SCT032 13/12 Q1016 BLU NOSIG   
EGVN 180350Z 22004KT 9999 FEW018 SCT032 13/12 Q1016 NOSIG
EGVN 180250Z 26005KT 9999 FEW008 SCT018 14/12 Q1016 WHT TEMPO FEW018 SCT030 BLU 
EGVN 180250Z 26005KT 9999 FEW008 SCT018 14/12 Q1016 TEMPO FEW018 SCT030
EGVN 180150Z 25006KT 9999 FEW012 BKN020 14/12 Q1016 WHT TEMPO FEW020 SCT025 BLU 
EGVN 180150Z 25006KT 9999 FEW012 BKN020 14/12 Q1016 TEMPO FEW020 SCT025
EGVN 180050Z 26009KT 9999 FEW012 BKN015 15/13 Q1016 TEMPO SCT012
EGVN 180050Z 26009KT 9999 FEW012 BKN015 15/13 Q1016 WHT TEMPO SCT012 GRN
EGVN 172350Z 23004KT 9999 -DZ BKN007 15/14 Q1016 GRN TEMPO FEW007 SCT020 WHT
EGVN 172350Z 23004KT 9999 -DZ BKN007 15/14 Q1016 TEMPO FEW007 SCT020
EGVN 172250Z 25006KT 9999 FEW008 BKN010 15/14 Q1016 GRN TEMPO FEW010 SCT025 BLU 
EGVN 172250Z 25006KT 9999 FEW008 BKN010 15/14 Q1016 TEMPO FEW010 SCT025
EGVN 172143Z 23004KT 9999 FEW005 SCT012 15/15 Q1016 GRN TEMPO FEW012 SCT026 BLU 
EGVN 172126Z 24006KT 4000 -DZ FEW005 BKN012 15/15 Q1016 GRN BECMG 7000 NSW GRN
EGVN 172143Z 23004KT 9999 FEW005 SCT012 15/15 Q1016 GRN TEMPO FEW012 SCT026 BLU
EGVN 172143Z 23004KT 9999 FEW005 SCT012 15/15 Q1016 TEMPO FEW012 SCT026
EGVN 172050Z 21005KT 2500 -DZ OVC003 15/15 Q1016 BECMG 7000 NSW FEW003 BKN010   
EGVN 172050Z 21005KT 2500 -DZ OVC003 15/15 Q1016 YLO2 BECMG 7000 NSW FEW003 BKN010 GRN
EGVN 172014Z 21006KT 3000 -DZ BKN003 OVC011 15/14 Q1015 YLO2 BECMG 9999 NSW FEW003 BKN011 GRN
EGVN 171950Z 21007KT 3500 -DZ SCT005 OVC010 15/14 Q1015 BECMG 9999 NSW FEW005 BKN010
EGVN 171950Z 21007KT 3500 -DZ SCT005 OVC010 15/14 Q1015 YLO1 BECMG 9999 NSW FEW005 BKN010 GRN
EGVN 171850Z 21008KT 9999 BKN010 16/13 Q1015 NOSIG  
EGVN 171850Z 21008KT 9999 BKN010 16/13 Q1015 GRN NOSIG
EGVN 171750Z 22008KT 9999 FEW008 BKN012 16/13 Q1015 NOSIG   
EGVN 171750Z 22008KT 9999 FEW008 BKN012 16/13 Q1015 GRN NOSIG
EGVN 171650Z 21010KT 9999 OVC012 16/13 Q1015 NOSIG  
EGVN 171650Z 21010KT 9999 OVC012 16/13 Q1015 GRN NOSIG
EGVN 171615Z 21011KT 9999 OVC014 16/13 Q1015 GRN NOSIG
EGVN 171550Z 21010KT 9999 OVC018 16/12 Q1015 BECMG BKN014   
EGVN 171550Z 21010KT 9999 OVC018 16/12 Q1015 WHT BECMG BKN014 GRN
EGVN 171450Z 21009KT 9999 OVC020 17/12 Q1015 BECMG BKN012   
EGVN 171450Z 21009KT 9999 OVC020 17/12 Q1015 WHT BECMG BKN012 GRN
EGVN 171350Z 21009KT 9999 BKN023 BKN035 17/11 Q1015 BECMG BKN014
EGVN 171350Z 21009KT 9999 BKN023 BKN035 17/11 Q1015 WHT BECMG BKN014 GRN
EGVN 171250Z 22007KT 9999 OVC026 16/10 Q1015 BLU BECMG BKN020 WHT   
EGVN 171250Z 22007KT 9999 OVC026 16/10 Q1015 BECMG BKN020
EGVN 171150Z 22007KT 9999 OVC028 17/10 Q1015 BLU BECMG BKN020 WHT   
EGVN 171150Z 22007KT 9999 OVC028 17/10 Q1015 BECMG BKN020
EGVN 171126Z 23008KT 9999 FEW020 BKN035 16/10 Q1016 BLU BECMG BKN020 WHT
EGVN 171050Z 23005KT 9999 BKN022 15/10 Q1016 WHT NOSIG  
EGVN 171050Z 23005KT 9999 BKN022 15/10 Q1016 NOSIG
EGVN 170950Z 23006KT 9999 FEW020 BKN040 15/10 Q1016 TEMPO SCT020
EGVN 170950Z 23006KT 9999 FEW020 BKN040 15/10 Q1016 BLU TEMPO SCT020 WHT
EGVN 170850Z 23006KT 9999 FEW020 BKN060 15/11 Q1015 BLU TEMPO SCT020 WHT
EGVN 170850Z 23006KT 9999 FEW020 BKN060 15/11 Q1015 TEMPO SCT020
EGVN 170750Z 25007KT 9999 BKN016 BKN060 14/11 Q1016 WHT TEMPO FEW016 BLU
EGVN 170750Z 25007KT 9999 BKN016 BKN060 14/11 Q1016 TEMPO FEW016
EGVN 170715Z 25005KT 9999 BKN012 14/12 Q1015 GRN BECMG FEW012 BKN030 BLU
EGVN 170650Z 24004KT 9999 FEW010 SCT050 BKN080 13/12 Q1015 NOSIG
EGVN 170650Z 24004KT 9999 FEW010 SCT050 BKN080 13/12 Q1015 BLU NOSIG
EGVN 170632Z 25004KT 9999 -RA FEW011 BKN050 13/12 Q1015 BLU NOSIG
EGVN 170550Z 24004KT 9999 -SHRA SCT011 BKN019 OVC080 13/11 Q1015 TEMPO FEW011   
EGVN 170550Z 24004KT 9999 -SHRA SCT011 BKN019 OVC080 13/11 Q1015 GRN TEMPO FEW011 BLU
EGVN 170450Z 23004KT 9999 FEW013 OVC080 13/10 Q1014 TEMPO SCT013
EGVN 170450Z 23004KT 9999 FEW013 OVC080 13/10 Q1014 BLU TEMPO SCT013 GRN